Jalaluddin Airport


Codes: WAMG/GTO
Name: Jalaluddin Airport
City: Gorontalo-Celebes Island
Country: Indonesia
Elevation: 105 ft.
Wikipedia:

Photos at Jalaluddin Airport


   Photos courtesy of SpottingLog. You can add your own sightings and photos by signing up for a free trial today.



No photos found.

Weather at Jalaluddin Airport


Time (UTC)DescriptionTempratureWindCloud coverageVisibilityPressureHumidity
16-Jun-2024 09:00Broken Clouds27°C2 mph, S68%10000m1010hPa83%
16-Jun-2024 12:00Light Rain26°C2 mph, S67%10000m1011hPa88%
16-Jun-2024 15:00Light Rain25°C0 mph, SE89%10000m1011hPa94%
16-Jun-2024 18:00Light Rain23°C0 mph, S94%10000m1010hPa101%
16-Jun-2024 21:00Broken Clouds23°C0 mph, SE67%10000m1010hPa101%
17-Jun-2024 00:00Broken Clouds27°C2 mph, S65%10000m1011hPa89%
17-Jun-2024 03:00Broken Clouds31°C7 mph, S57%10000m1010hPa59%
17-Jun-2024 06:00Light Rain31°C7 mph, S69%10000m1009hPa62%
17-Jun-2024 09:00Light Rain27°C2 mph, S100%10000m1009hPa83%
17-Jun-2024 12:00Overcast Clouds24°C2 mph, SE100%10000m1011hPa94%
17-Jun-2024 15:00Overcast Clouds24°C2 mph, SE100%10000m1012hPa98%
17-Jun-2024 18:00Overcast Clouds23°C2 mph, SE100%10000m1010hPa100%
17-Jun-2024 21:00Light Rain23°C2 mph, SE72%10000m1010hPa100%
18-Jun-2024 00:00Overcast Clouds26°C2 mph, SE86%10000m1012hPa91%
18-Jun-2024 03:00Overcast Clouds29°C4 mph, S100%10000m1010hPa69%
18-Jun-2024 06:00Overcast Clouds28°C4 mph, S98%10000m1008hPa69%
18-Jun-2024 09:00Overcast Clouds25°C2 mph, SW100%10000m1008hPa85%
18-Jun-2024 12:00Overcast Clouds24°C0 mph, S100%10000m1010hPa89%
18-Jun-2024 15:00Overcast Clouds23°C0 mph, SE100%10000m1011hPa94%
18-Jun-2024 18:00Overcast Clouds23°C2 mph, SE90%10000m1010hPa100%
18-Jun-2024 21:00Light Rain23°C2 mph, SE89%10000m1009hPa100%
19-Jun-2024 00:00Light Rain27°C2 mph, S93%10000m1011hPa86%
19-Jun-2024 03:00Light Rain30°C4 mph, S48%10000m1009hPa66%
19-Jun-2024 06:00Light Rain30°C7 mph, S60%10000m1008hPa69%
19-Jun-2024 09:00Light Rain26°C2 mph, S100%10000m1008hPa91%
19-Jun-2024 12:00Light Rain24°C2 mph, SE100%10000m1010hPa100%
19-Jun-2024 15:00Overcast Clouds23°C0 mph, SE86%10000m1011hPa101%
19-Jun-2024 18:00Light Rain23°C0 mph, S84%10000m1009hPa101%
19-Jun-2024 21:00Overcast Clouds23°C0 mph, S95%10000m1009hPa101%
20-Jun-2024 00:00Light Rain25°C2 mph, S97%10000m1011hPa95%
20-Jun-2024 03:00Light Rain29°C4 mph, S100%10000m1010hPa68%
20-Jun-2024 06:00Overcast Clouds26°C4 mph, SW100%10000m1008hPa83%
20-Jun-2024 09:00Light Rain25°C2 mph, S100%10000m1009hPa95%
20-Jun-2024 12:00Overcast Clouds23°C2 mph, S100%10000m1011hPa99%
20-Jun-2024 15:00Light Rain23°C2 mph, SE100%10000m1011hPa99%
20-Jun-2024 18:00Light Rain23°C2 mph, SE100%10000m1010hPa100%
20-Jun-2024 21:00Overcast Clouds23°C2 mph, SE97%10000m1010hPa100%
21-Jun-2024 00:00Light Rain26°C4 mph, S87%10000m1011hPa87%
21-Jun-2024 03:00Light Rain28°C4 mph, SE80%10000m1011hPa72%
21-Jun-2024 06:00Light Rain26°C2 mph, SW91%10000m1009hPa84%